Portada
METAR-TAF:

METAR-TAF

Aeropuertos :

Bergerac, Francia

latitud: 44-49N, longitud: 000-31E, altitud: 51 m

Observación

El informe se hizo hace 38 minutos, a las 03:00 UTC
Viento 2 kt del este
Temperatura 16°C
Humedad 94%
Presión 1018 hPa
Visibilidad: 7000 m

METAR: LFBE 200300Z AUTO 09002KT 7000 NSC 16/15 Q1018 TEMPO 0800 BCFG

Hora: 05:38 (03:38 UTC)

Pronóstico

El informe se hizo hace 4 horas y 38 minutos, a las 23:00 UTC
Pronóstico válido del 20 a las 00 UTC al 20 a las 24 UTC
Viento 2 kt con dirección variable
Visibilidad 10 km o más
sin nubes por debajo de 1500 m y sin presencia de cumulonimbus.
Probabilidad 30% :
Temporalmente
del 20 a las 01 UTC al 20 a las 05 UTC
Visibilidad: 0800 m
niebla en bancos
Evolucionando progresivamente
del 20 a las 08 UTC al 20 a las 10 UTC
Viento 5 kt del sur-sureste

TAF: LFBE 192300Z 2000/2024 VRB02KT CAVOK PROB30 TEMPO 2001/2005 0800 BCFG BECMG 2008/2010 15005KT

Observaciones y pronósticos meteorológicos de más de 4000 aeropuertos (mensajes METAR y TAF).

Los puntos amarillos y rojos representan las estaciones disponibles.

Ponga el ratón en el punto deseado para ver el nombre de la estación.

Haga clic para ver las observaciones y los pronósticos meteorológicos.

Para cambiar el mapa : haga clic en los botones verdes con una cruz de color negro para hacer un zoom, en el botón verde con un guión para alejar o en las flechas verdes para mapas adyacentes.


METAR-TAF: